createdAt,value
2023-01-26T00:01:29.262Z,102404.63
2023-01-26T00:03:58.251Z,102404.66
2023-01-26T00:06:26.645Z,102406.28
2023-01-26T00:08:57.195Z,102403.78
2023-01-26T00:11:27.708Z,102405.50
2023-01-26T00:13:55.859Z,102395.72
2023-01-26T00:16:23.931Z,102401.88
2023-01-26T00:18:52.132Z,102396.63
2023-01-26T00:21:21.556Z,102396.66
2023-01-26T00:23:50.480Z,102391.38
2023-01-26T00:26:22.635Z,102392.78
2023-01-26T00:28:51.339Z,102386.44
2023-01-26T00:31:21.451Z,102399.13
2023-01-26T00:33:49.696Z,102387.75
2023-01-26T00:36:17.620Z,102391.22
2023-01-26T00:38:45.519Z,102384.19
2023-01-26T00:41:34.340Z,102379.88
2023-01-26T00:44:03.753Z,102384.19
2023-01-26T00:46:31.687Z,102387.59
2023-01-26T00:49:00.926Z,102383.97
2023-01-26T00:51:29.018Z,102378.69
2023-01-26T00:53:56.923Z,102383.06
2023-01-26T00:56:28.110Z,102375.28
2023-01-26T00:58:56.154Z,102371.72
2023-01-26T01:01:25.437Z,102371.75
2023-01-26T01:03:53.350Z,102372.59
2023-01-26T01:06:21.344Z,102373.38
2023-01-26T01:08:49.251Z,102369.00
2023-01-26T01:11:17.154Z,102362.94
2023-01-26T01:13:45.187Z,102366.34
2023-01-26T01:16:14.701Z,102360.97
2023-01-26T01:18:44.348Z,102359.13
2023-01-26T01:21:15.052Z,102367.91
2023-01-26T01:23:43.495Z,102368.63
2023-01-26T01:26:11.613Z,102369.91
2023-01-26T01:28:40.078Z,102366.19
2023-01-26T01:31:08.397Z,102360.78
2023-01-26T01:33:36.485Z,102351.97
2023-01-26T01:36:07.864Z,102350.94
2023-01-26T01:38:36.239Z,102350.78
2023-01-26T01:41:04.448Z,102357.91
2023-01-26T01:43:32.624Z,102359.59
2023-01-26T01:46:01.948Z,102356.22
2023-01-26T01:48:32.909Z,102356.31
2023-01-26T01:51:06.954Z,102354.78
2023-01-26T01:53:37.857Z,102350.13
2023-01-26T01:56:10.875Z,102344.94
2023-01-26T01:58:41.564Z,102340.53
2023-01-26T02:01:09.672Z,102347.41
2023-01-26T02:03:38.571Z,102347.41
2023-01-26T02:06:10.054Z,102353.75
2023-01-26T02:08:39.912Z,102338.66
2023-01-26T02:11:09.774Z,102338.84
2023-01-26T02:13:39.308Z,102333.38
2023-01-26T02:16:07.700Z,102330.47
2023-01-26T02:18:35.689Z,102340.06
2023-01-26T02:21:05.186Z,102334.66
2023-01-26T02:23:42.008Z,102328.78
2023-01-26T02:26:13.259Z,102333.91
2023-01-26T02:28:41.875Z,102329.50
2023-01-26T02:31:11.410Z,102325.44
2023-01-26T02:33:39.415Z,102323.59
2023-01-26T02:36:08.982Z,102328.09
2023-01-26T02:38:42.084Z,102319.16
2023-01-26T02:41:13.556Z,102317.47
2023-01-26T02:43:41.078Z,102316.28
2023-01-26T02:46:09.049Z,102318.22
2023-01-26T02:48:54.459Z,102316.63
2023-01-26T02:51:22.497Z,102320.81
2023-01-26T02:53:50.374Z,102312.81
2023-01-26T02:56:18.627Z,102319.97
2023-01-26T02:58:46.574Z,102313.78
2023-01-26T03:01:14.507Z,102317.22
2023-01-26T03:03:45.676Z,102308.41
2023-01-26T03:06:15.259Z,102314.56
2023-01-26T03:08:43.270Z,102310.13
2023-01-26T03:11:11.153Z,102303.16
2023-01-26T03:13:40.445Z,102301.34
2023-01-26T03:16:10.291Z,102303.97
2023-01-26T03:18:55.501Z,102301.94
2023-01-26T03:21:41.202Z,102305.53
2023-01-26T03:24:29.943Z,102301.75
2023-01-26T03:27:15.179Z,102303.75
2023-01-26T03:29:44.610Z,102308.06
2023-01-26T03:32:12.737Z,102306.28
2023-01-26T03:34:40.633Z,102300.19
2023-01-26T03:37:08.590Z,102296.56
2023-01-26T03:39:53.820Z,102302.91
2023-01-26T03:42:39.418Z,102301.06
2023-01-26T03:45:26.877Z,102294.75
2023-01-26T03:48:12.359Z,102301.72
2023-01-26T03:50:57.691Z,102301.00
2023-01-26T03:53:42.989Z,102291.25
2023-01-26T03:56:18.415Z,102283.94
2023-01-26T03:58:46.784Z,102289.38
2023-01-26T04:01:20.057Z,102286.41
2023-01-26T04:04:06.698Z,102291.03
2023-01-26T04:06:52.812Z,102283.00
2023-01-26T04:09:21.123Z,102290.13
2023-01-26T04:11:49.580Z,102282.06
2023-01-26T04:14:38.175Z,102279.50
2023-01-26T04:17:37.615Z,102276.75
2023-01-26T04:20:23.983Z,102283.69
2023-01-26T04:22:51.892Z,102287.41
2023-01-26T04:25:21.715Z,102289.13
2023-01-26T04:27:49.662Z,102288.50
2023-01-26T04:30:19.027Z,102279.59
2023-01-26T04:32:48.372Z,102281.34
2023-01-26T04:35:16.340Z,102278.53
2023-01-26T04:37:44.314Z,102280.47
2023-01-26T04:40:13.430Z,102273.19
2023-01-26T04:42:41.593Z,102273.25
2023-01-26T04:45:11.534Z,102270.72
2023-01-26T04:47:39.508Z,102268.06
2023-01-26T04:50:11.001Z,102269.84
2023-01-26T04:52:39.007Z,102269.94
2023-01-26T04:55:07.379Z,102268.00
2023-01-26T04:57:35.311Z,102256.44
2023-01-26T05:00:04.851Z,102262.47
2023-01-26T05:02:32.767Z,102268.94
2023-01-26T05:05:00.818Z,102267.22
2023-01-26T05:07:30.093Z,102261.84
2023-01-26T05:09:57.977Z,102263.34
2023-01-26T05:12:34.600Z,102264.41
2023-01-26T05:15:02.496Z,102265.06
2023-01-26T05:17:30.401Z,102266.88
2023-01-26T05:19:58.378Z,102267.94
2023-01-26T05:22:26.291Z,102258.97
2023-01-26T05:24:55.618Z,102265.03
2023-01-26T05:27:23.518Z,102270.38
2023-01-26T05:29:52.247Z,102268.47
2023-01-26T05:32:20.555Z,102256.16
2023-01-26T05:34:48.455Z,102264.19
2023-01-26T05:37:16.350Z,102258.97
2023-01-26T05:39:44.279Z,102266.94
2023-01-26T05:42:14.004Z,102274.59
2023-01-26T05:44:41.928Z,102272.88
2023-01-26T05:47:09.869Z,102277.50
2023-01-26T05:49:38.829Z,102272.97
2023-01-26T05:52:10.561Z,102272.97
2023-01-26T05:54:38.504Z,102267.72
2023-01-26T05:57:06.423Z,102268.38
2023-01-26T05:59:35.772Z,102279.88
2023-01-26T06:02:03.669Z,102280.72
2023-01-26T06:04:31.890Z,102280.66
2023-01-26T06:07:00.931Z,102292.34
2023-01-26T06:09:28.884Z,102281.88
2023-01-26T06:11:57.917Z,102280.00
2023-01-26T06:14:25.864Z,102276.59
2023-01-26T06:16:56.788Z,102272.78
2023-01-26T06:19:24.846Z,102267.41
2023-01-26T06:21:53.540Z,102276.22
2023-01-26T06:24:21.557Z,102272.75
2023-01-26T06:26:49.851Z,102271.84
2023-01-26T06:29:17.855Z,102276.22
2023-01-26T06:31:45.827Z,102283.56
2023-01-26T06:34:15.456Z,102279.03
2023-01-26T06:36:43.398Z,102287.94
2023-01-26T06:39:13.218Z,102285.09
2023-01-26T06:41:41.462Z,102287.56
2023-01-26T06:44:09.944Z,102286.88
2023-01-26T06:46:37.975Z,102279.97
2023-01-26T06:49:06.314Z,102278.13
2023-01-26T06:51:47.672Z,102272.72
2023-01-26T06:54:16.423Z,102283.91
2023-01-26T06:56:44.324Z,102285.88
2023-01-26T06:59:12.262Z,102277.28
2023-01-26T07:01:42.882Z,102283.22
2023-01-26T07:04:10.770Z,102293.47
2023-01-26T07:06:40.119Z,102297.47
2023-01-26T07:09:08.098Z,102290.41
2023-01-26T07:11:36.004Z,102294.00
2023-01-26T07:14:03.923Z,102296.72
2023-01-26T07:16:33.738Z,102301.00
2023-01-26T07:19:01.809Z,102300.19
2023-01-26T07:21:29.969Z,102303.78
2023-01-26T07:23:59.250Z,102302.78
2023-01-26T07:26:27.225Z,102307.25
2023-01-26T07:28:55.252Z,102306.38
2023-01-26T07:31:23.236Z,102305.31
2023-01-26T07:33:51.356Z,102315.09
2023-01-26T07:36:19.318Z,102313.94
2023-01-26T07:38:47.201Z,102321.66
2023-01-26T07:41:16.481Z,102319.75
2023-01-26T07:43:44.538Z,102314.78
2023-01-26T07:46:12.634Z,102316.56
2023-01-26T07:48:41.787Z,102323.69
2023-01-26T07:51:11.290Z,102314.66
2023-01-26T07:53:41.174Z,102310.31
2023-01-26T07:56:11.097Z,102315.66
2023-01-26T07:58:40.743Z,102320.13
2023-01-26T08:01:10.977Z,102322.75
2023-01-26T08:03:38.947Z,102327.19
2023-01-26T08:06:09.631Z,102330.66
2023-01-26T08:08:40.978Z,102328.81
2023-01-26T08:11:09.370Z,102320.16
2023-01-26T08:13:37.371Z,102324.53
2023-01-26T08:16:09.618Z,102325.53
2023-01-26T08:18:37.616Z,102327.94
2023-01-26T08:21:06.193Z,102322.50
2023-01-26T08:23:34.753Z,102331.50
2023-01-26T08:26:03.367Z,102321.81
2023-01-26T08:28:31.305Z,102324.41
2023-01-26T08:31:06.488Z,102336.81
2023-01-26T08:33:35.743Z,102347.38
2023-01-26T08:36:04.058Z,102352.63
2023-01-26T08:38:32.730Z,102349.09
2023-01-26T08:41:00.713Z,102347.16
2023-01-26T08:43:28.906Z,102348.09
2023-01-26T08:45:56.896Z,102357.91
2023-01-26T08:48:26.467Z,102350.81
2023-01-26T08:50:55.204Z,102349.03
2023-01-26T08:53:23.480Z,102352.50
2023-01-26T08:55:51.989Z,102356.81
2023-01-26T08:58:20.521Z,102348.88
2023-01-26T09:00:49.182Z,102348.72
2023-01-26T09:03:17.220Z,102352.38
2023-01-26T09:05:46.505Z,102342.59
2023-01-26T09:08:14.448Z,102347.03
2023-01-26T09:10:45.192Z,102354.06
2023-01-26T09:13:13.199Z,102357.69
2023-01-26T09:15:41.157Z,102347.75
2023-01-26T09:18:09.037Z,102348.69
2023-01-26T09:20:36.945Z,102350.56
2023-01-26T09:23:06.219Z,102351.50
2023-01-26T09:25:37.530Z,102346.94
2023-01-26T09:28:06.624Z,102348.63
2023-01-26T09:30:35.458Z,102353.06
2023-01-26T09:33:05.140Z,102340.56
2023-01-26T09:35:33.267Z,102334.28
2023-01-26T09:38:01.215Z,102336.81
2023-01-26T09:40:38.422Z,102342.91
2023-01-26T09:43:16.200Z,102331.47
2023-01-26T09:45:49.435Z,102336.75
2023-01-26T09:48:25.459Z,102335.97
2023-01-26T09:50:57.947Z,102345.69
2023-01-26T09:53:28.416Z,102341.19
2023-01-26T09:55:57.871Z,102337.56
2023-01-26T09:58:33.082Z,102342.06
2023-01-26T10:01:02.433Z,102334.00
2023-01-26T10:03:34.071Z,102335.72
2023-01-26T10:06:06.307Z,102341.13
2023-01-26T10:08:36.417Z,102337.50
2023-01-26T10:11:09.003Z,102338.44
2023-01-26T10:13:37.182Z,102341.91
2023-01-26T10:16:08.579Z,102333.13
2023-01-26T10:18:40.659Z,102332.13
2023-01-26T10:21:09.048Z,102338.34
2023-01-26T10:23:37.244Z,102317.97
2023-01-26T10:26:14.180Z,102325.91
2023-01-26T10:28:43.050Z,102312.63
2023-01-26T10:31:15.740Z,102306.25
2023-01-26T10:33:50.120Z,102312.41
2023-01-26T10:36:18.216Z,102309.72
2023-01-26T10:38:46.722Z,102305.13
2023-01-26T10:41:27.209Z,102308.66
2023-01-26T10:43:56.525Z,102303.56
2023-01-26T10:46:26.522Z,102319.47
2023-01-26T10:48:55.105Z,102310.50
2023-01-26T10:51:29.695Z,102317.50
2023-01-26T10:54:20.862Z,102313.94
2023-01-26T10:56:52.688Z,102315.78
2023-01-26T10:59:29.364Z,102329.88
2023-01-26T11:01:58.600Z,102333.38
2023-01-26T11:04:27.156Z,102334.25
2023-01-26T11:06:55.333Z,102318.22
2023-01-26T11:09:27.513Z,102326.97
2023-01-26T11:12:02.388Z,102327.94
2023-01-26T11:14:30.982Z,102329.59
2023-01-26T11:17:02.864Z,102328.75
2023-01-26T11:19:43.910Z,102326.91
2023-01-26T11:22:14.888Z,102324.25
2023-01-26T11:24:47.692Z,102329.59
2023-01-26T11:27:30.024Z,102321.41
2023-01-26T11:30:28.249Z,102320.63
2023-01-26T11:33:01.818Z,102322.16
2023-01-26T11:35:33.906Z,102308.81
2023-01-26T11:38:11.050Z,102314.09
2023-01-26T11:40:42.689Z,102307.03
2023-01-26T11:43:48.464Z,102311.31
2023-01-26T11:46:37.578Z,102305.06
2023-01-26T11:49:16.241Z,102305.97
2023-01-26T11:51:52.050Z,102306.84
2023-01-26T11:54:29.643Z,102296.94
2023-01-26T11:57:04.637Z,102296.03
2023-01-26T11:59:37.585Z,102288.88
2023-01-26T12:02:15.226Z,102293.19
2023-01-26T12:04:45.513Z,102289.69
2023-01-26T12:07:16.610Z,102285.22
2023-01-26T12:09:47.282Z,102292.22
2023-01-26T12:12:18.626Z,102290.38
2023-01-26T12:14:52.490Z,102284.16
2023-01-26T12:17:31.659Z,102282.19
2023-01-26T12:20:05.669Z,102282.88
2023-01-26T12:22:36.411Z,102274.03
2023-01-26T12:25:19.477Z,102273.06
2023-01-26T12:27:52.550Z,102272.03
2023-01-26T12:30:29.853Z,102260.38
2023-01-26T12:32:57.912Z,102259.44
2023-01-26T12:35:36.686Z,102259.50
2023-01-26T12:38:17.557Z,102262.56
2023-01-26T12:40:54.978Z,102264.56
2023-01-26T12:43:36.686Z,102265.22
2023-01-26T12:46:08.017Z,102262.06
2023-01-26T12:48:41.337Z,102272.66
2023-01-26T12:51:11.750Z,102265.47
2023-01-26T12:53:47.035Z,102266.06
2023-01-26T12:56:21.719Z,102265.38
2023-01-26T12:58:51.743Z,102263.47
2023-01-26T13:01:23.911Z,102264.88
2023-01-26T13:03:55.317Z,102265.91
2023-01-26T13:06:24.824Z,102271.41
2023-01-26T13:09:01.427Z,102256.84
2023-01-26T13:11:47.076Z,102247.69
2023-01-26T13:14:56.746Z,102254.38
2023-01-26T13:17:50.693Z,102247.47
2023-01-26T13:20:51.744Z,102244.31
2023-01-26T13:23:53.113Z,102244.19
2023-01-26T13:26:52.013Z,102250.41
2023-01-26T13:29:34.640Z,102261.00
2023-01-26T13:32:53.346Z,102256.66
2023-01-26T13:35:24.403Z,102267.16
2023-01-26T13:37:59.296Z,102272.03
2023-01-26T13:40:31.839Z,102260.44
2023-01-26T13:43:07.654Z,102268.72
2023-01-26T13:45:44.122Z,102278.25
2023-01-26T13:48:16.266Z,102267.97
2023-01-26T13:50:47.176Z,102273.28
2023-01-26T13:53:37.487Z,102279.47
2023-01-26T13:56:06.984Z,102279.47
2023-01-26T13:58:35.262Z,102278.69
2023-01-26T14:01:05.772Z,102268.13
2023-01-26T14:03:34.268Z,102272.16
2023-01-26T14:06:06.203Z,102274.91
2023-01-26T14:08:34.686Z,102268.28
2023-01-26T14:11:04.483Z,102277.84
2023-01-26T14:13:34.952Z,102280.19
2023-01-26T14:16:07.713Z,102274.13
2023-01-26T14:18:37.322Z,102275.41
2023-01-26T14:21:15.084Z,102266.91
2023-01-26T14:23:43.007Z,102265.81
2023-01-26T14:26:18.494Z,102260.13
2023-01-26T14:28:47.014Z,102263.94
2023-01-26T14:31:20.974Z,102260.63
2023-01-26T14:33:49.437Z,102259.22
2023-01-26T14:36:20.536Z,102266.22
2023-01-26T14:38:49.595Z,102276.00
2023-01-26T14:41:19.985Z,102274.25
2023-01-26T14:43:49.955Z,102280.91
2023-01-26T14:46:19.411Z,102278.97
2023-01-26T14:48:50.754Z,102266.28
2023-01-26T14:51:22.463Z,102269.00
2023-01-26T14:53:51.331Z,102266.06
2023-01-26T14:56:20.280Z,102275.09
2023-01-26T14:58:51.971Z,102277.66
2023-01-26T15:01:23.862Z,102275.19
2023-01-26T15:03:52.500Z,102278.53
2023-01-26T15:06:23.917Z,102276.06
2023-01-26T15:09:00.480Z,102274.88
2023-01-26T15:11:48.669Z,102280.72
2023-01-26T15:14:33.284Z,102271.38
2023-01-26T15:17:01.347Z,102277.16
2023-01-26T15:19:34.343Z,102275.03
2023-01-26T15:22:03.656Z,102276.97
2023-01-26T15:24:31.608Z,102270.56
2023-01-26T15:27:06.789Z,102271.00
2023-01-26T15:29:35.234Z,102271.38
2023-01-26T15:32:03.448Z,102267.50
2023-01-26T15:34:36.402Z,102275.91
2023-01-26T15:37:28.493Z,102268.81
2023-01-26T15:39:56.448Z,102269.72
2023-01-26T15:42:27.680Z,102266.09
2023-01-26T15:44:55.843Z,102270.63
2023-01-26T15:47:23.793Z,102277.75
2023-01-26T15:49:51.742Z,102277.81
2023-01-26T15:52:23.429Z,102270.31
2023-01-26T15:54:51.839Z,102273.09
2023-01-26T15:57:19.912Z,102275.09
2023-01-26T15:59:47.806Z,102272.47
2023-01-26T16:02:17.536Z,102272.94
2023-01-26T16:04:46.255Z,102267.94
2023-01-26T16:07:15.573Z,102279.31
2023-01-26T16:09:45.064Z,102283.91
2023-01-26T16:12:30.341Z,102289.34
2023-01-26T16:14:59.315Z,102292.91
2023-01-26T16:17:27.251Z,102294.63
2023-01-26T16:19:55.180Z,102301.81
2023-01-26T16:22:23.106Z,102302.72
2023-01-26T16:24:52.401Z,102303.88
2023-01-26T16:27:21.691Z,102301.28
2023-01-26T16:29:49.600Z,102315.47
2023-01-26T16:32:28.629Z,102309.72
2023-01-26T16:34:56.621Z,102309.84
2023-01-26T16:37:24.564Z,102311.03
2023-01-26T16:39:53.843Z,102315.38
2023-01-26T16:42:22.271Z,102322.28
2023-01-26T16:44:50.247Z,102332.16
2023-01-26T16:47:18.174Z,102336.69
2023-01-26T16:49:46.115Z,102329.66
2023-01-26T16:52:14.068Z,102335.00
2023-01-26T16:54:41.967Z,102330.56
2023-01-26T16:57:11.252Z,102331.47
2023-01-26T16:59:40.129Z,102327.06
2023-01-26T17:02:13.409Z,102335.97
2023-01-26T17:04:41.340Z,102332.41
2023-01-26T17:07:09.248Z,102340.44
2023-01-26T17:09:37.147Z,102336.06
2023-01-26T17:12:06.295Z,102341.31
2023-01-26T17:14:35.615Z,102349.47
2023-01-26T17:17:03.631Z,102338.59
2023-01-26T17:19:31.520Z,102330.78
2023-01-26T17:21:59.478Z,102336.16
2023-01-26T17:24:27.430Z,102344.00
2023-01-26T17:26:55.436Z,102342.28
2023-01-26T17:29:23.319Z,102339.69
2023-01-26T17:31:52.707Z,102344.22
2023-01-26T17:34:21.555Z,102337.06
2023-01-26T17:36:49.454Z,102334.38
2023-01-26T17:39:18.804Z,102331.75
2023-01-26T17:41:46.769Z,102342.41
2023-01-26T17:44:15.278Z,102345.09
2023-01-26T17:46:43.319Z,102342.38
2023-01-26T17:49:12.617Z,102345.06
2023-01-26T17:51:40.582Z,102336.94
2023-01-26T17:54:08.494Z,102343.28
2023-01-26T17:56:36.399Z,102351.22
2023-01-26T17:59:04.397Z,102345.97
2023-01-26T18:01:32.334Z,102339.72
2023-01-26T18:04:00.265Z,102334.44
2023-01-26T18:06:29.716Z,102337.06
2023-01-26T18:08:57.856Z,102336.16
2023-01-26T18:11:25.790Z,102336.22
2023-01-26T18:13:55.421Z,102335.22
2023-01-26T18:16:23.496Z,102327.22
2023-01-26T18:18:55.710Z,102325.50
2023-01-26T18:21:25.024Z,102334.34
2023-01-26T18:23:56.082Z,102333.47
2023-01-26T18:26:25.756Z,102336.22
2023-01-26T18:28:54.775Z,102326.31
2023-01-26T18:31:24.403Z,102328.13
2023-01-26T18:33:52.692Z,102329.75
2023-01-26T18:36:21.893Z,102340.59
2023-01-26T18:38:51.579Z,102341.44
2023-01-26T18:41:22.232Z,102336.88
2023-01-26T18:43:51.914Z,102345.06
2023-01-26T18:46:20.307Z,102344.16
2023-01-26T18:48:48.243Z,102339.63
2023-01-26T18:51:18.220Z,102339.72
2023-01-26T18:53:46.334Z,102332.66
2023-01-26T18:56:16.376Z,102335.31
2023-01-26T18:58:45.686Z,102334.47
2023-01-26T19:01:14.953Z,102344.31
2023-01-26T19:03:47.305Z,102338.09
2023-01-26T19:06:19.919Z,102347.03
2023-01-26T19:08:49.011Z,102344.31
2023-01-26T19:11:16.925Z,102346.13
2023-01-26T19:13:48.814Z,102347.00
2023-01-26T19:16:16.971Z,102348.69
2023-01-26T19:18:44.938Z,102353.97
2023-01-26T19:21:12.957Z,102353.09
2023-01-26T19:23:42.746Z,102348.69
2023-01-26T19:26:11.898Z,102352.13
2023-01-26T19:28:41.510Z,102352.19
2023-01-26T19:31:11.433Z,102350.41
2023-01-26T19:33:39.572Z,102354.94
2023-01-26T19:36:09.282Z,102357.47
2023-01-26T19:38:39.368Z,102359.34
2023-01-26T19:41:07.747Z,102358.44
2023-01-26T19:43:35.729Z,102360.16
2023-01-26T19:46:05.576Z,102355.47
2023-01-26T19:48:34.943Z,102354.56
2023-01-26T19:51:04.504Z,102352.88
2023-01-26T19:53:33.383Z,102349.28
2023-01-26T19:56:06.286Z,102357.31
2023-01-26T19:58:34.231Z,102357.88
2023-01-26T20:01:02.766Z,102364.38
2023-01-26T20:03:30.781Z,102361.66
2023-01-26T20:06:00.130Z,102363.47
2023-01-26T20:08:29.246Z,102359.81
2023-01-26T20:11:03.930Z,102361.66
2023-01-26T20:13:32.047Z,102361.53
2023-01-26T20:15:59.924Z,102365.84
2023-01-26T20:18:27.851Z,102369.34
2023-01-26T20:20:56.964Z,102374.91
2023-01-26T20:23:27.477Z,102368.66
2023-01-26T20:26:02.267Z,102371.25
2023-01-26T20:28:30.541Z,102378.34
2023-01-26T20:31:05.259Z,102386.44
2023-01-26T20:33:33.651Z,102382.00
2023-01-26T20:36:01.579Z,102391.59
2023-01-26T20:38:30.902Z,102387.25
2023-01-26T20:40:58.843Z,102389.09
2023-01-26T20:43:26.735Z,102389.91
2023-01-26T20:45:54.694Z,102395.19
2023-01-26T20:48:22.611Z,102389.69
2023-01-26T20:50:52.606Z,102395.78
2023-01-26T20:53:20.975Z,102383.44
2023-01-26T20:55:50.255Z,102378.06
2023-01-26T20:58:18.213Z,102390.56
2023-01-26T21:00:46.158Z,102386.03
2023-01-26T21:03:14.175Z,102386.03
2023-01-26T21:05:42.171Z,102384.16
2023-01-26T21:08:10.075Z,102379.59
2023-01-26T21:10:37.991Z,102379.84
2023-01-26T21:13:07.382Z,102385.03
2023-01-26T21:15:35.279Z,102383.19
2023-01-26T21:18:04.088Z,102391.38
2023-01-26T21:20:32.044Z,102396.56
2023-01-26T21:23:00.219Z,102393.91
2023-01-26T21:25:28.172Z,102396.72
2023-01-26T21:27:56.169Z,102394.03
2023-01-26T21:30:25.460Z,102398.59
2023-01-26T21:32:53.839Z,102398.25
2023-01-26T21:35:21.730Z,102403.78
2023-01-26T21:37:49.791Z,102399.44
2023-01-26T21:40:18.341Z,102402.72
2023-01-26T21:42:46.234Z,102408.16
2023-01-26T21:45:31.791Z,102401.69
2023-01-26T21:48:18.535Z,102406.38
2023-01-26T21:51:03.893Z,102410.84
2023-01-26T21:53:31.779Z,102407.25
2023-01-26T21:55:59.665Z,102403.53
2023-01-26T21:58:45.206Z,102406.22
2023-01-26T22:01:13.164Z,102404.34
2023-01-26T22:03:42.481Z,102406.31
2023-01-26T22:06:10.396Z,102408.91
2023-01-26T22:08:38.322Z,102412.31
2023-01-26T22:11:06.576Z,102409.56
2023-01-26T22:13:36.161Z,102417.84
2023-01-26T22:16:05.014Z,102415.22
2023-01-26T22:18:32.997Z,102415.91
2023-01-26T22:21:02.969Z,102416.69
2023-01-26T22:23:32.506Z,102412.16
2023-01-26T22:26:00.425Z,102401.69
2023-01-26T22:28:28.295Z,102405.88
2023-01-26T22:31:03.005Z,102403.44
2023-01-26T22:33:31.313Z,102400.63
2023-01-26T22:36:07.681Z,102403.38
2023-01-26T22:38:36.416Z,102402.25
2023-01-26T22:41:05.579Z,102401.50
2023-01-26T22:43:34.580Z,102398.75
2023-01-26T22:46:03.872Z,102399.63
2023-01-26T22:48:31.861Z,102405.09
2023-01-26T22:51:00.104Z,102400.59
2023-01-26T22:53:29.956Z,102401.66
2023-01-26T22:55:57.869Z,102406.81
2023-01-26T22:58:25.831Z,102403.31
2023-01-26T23:00:53.813Z,102406.78
2023-01-26T23:03:22.602Z,102404.19
2023-01-26T23:05:50.547Z,102402.91
2023-01-26T23:08:18.465Z,102404.19
2023-01-26T23:10:47.730Z,102404.91
2023-01-26T23:13:15.700Z,102401.09
2023-01-26T23:15:43.595Z,102398.41
2023-01-26T23:18:11.462Z,102399.28
2023-01-26T23:20:39.378Z,102393.94
2023-01-26T23:23:07.254Z,102385.75
2023-01-26T23:25:53.119Z,102393.94
2023-01-26T23:28:24.079Z,102394.03
2023-01-26T23:30:52.886Z,102387.34
2023-01-26T23:33:21.973Z,102382.00
2023-01-26T23:35:50.311Z,102385.75
2023-01-26T23:38:18.486Z,102386.94
2023-01-26T23:40:46.557Z,102390.84
2023-01-26T23:43:16.917Z,102394.34
2023-01-26T23:45:47.540Z,102389.06
2023-01-26T23:48:15.953Z,102386.56
2023-01-26T23:50:44.016Z,102395.16
2023-01-26T23:53:12.374Z,102389.94
2023-01-26T23:55:41.298Z,102392.44
2023-01-26T23:58:09.240Z,102402.56
